createdAt,value
2019-04-03T00:00:10.758Z,7.78
2019-04-03T00:02:39.437Z,7.65
2019-04-03T00:05:08.166Z,7.65
2019-04-03T00:07:36.834Z,8.05
2019-04-03T00:10:07.962Z,8.08
2019-04-03T00:12:37.004Z,7.55
2019-04-03T00:15:06.867Z,7.42
2019-04-03T00:17:35.679Z,7.83
2019-04-03T00:20:07.255Z,7.40
2019-04-03T00:22:37.451Z,7.75
2019-04-03T00:25:07.261Z,7.58
2019-04-03T00:27:36.047Z,7.45
2019-04-03T00:30:07.380Z,7.62
2019-04-03T00:32:36.328Z,8.20
2019-04-03T00:35:08.217Z,7.55
2019-04-03T00:37:37.221Z,7.97
2019-04-03T00:40:08.139Z,7.87
2019-04-03T00:42:36.795Z,7.47
2019-04-03T00:45:07.008Z,7.58
2019-04-03T00:47:35.666Z,7.95
2019-04-03T00:50:06.486Z,7.05
2019-04-03T00:52:35.464Z,7.53
2019-04-03T00:55:05.280Z,7.55
2019-04-03T00:57:33.887Z,7.22
2019-04-03T01:00:04.075Z,7.30
2019-04-03T01:02:32.897Z,7.87
2019-04-03T01:05:01.512Z,7.92
2019-04-03T01:07:30.120Z,7.33
2019-04-03T01:09:59.521Z,7.67
2019-04-03T01:12:30.366Z,7.67
2019-04-03T01:15:01.061Z,7.87
2019-04-03T01:17:29.456Z,7.65
2019-04-03T01:19:58.106Z,7.78
2019-04-03T01:22:26.900Z,7.70
2019-04-03T01:24:55.560Z,7.97
2019-04-03T01:27:24.172Z,8.20
2019-04-03T01:29:52.828Z,8.20
2019-04-03T01:32:21.435Z,7.90
2019-04-03T01:34:50.102Z,8.10
2019-04-03T01:37:19.393Z,8.15
2019-04-03T01:39:50.345Z,7.72
2019-04-03T01:42:21.301Z,7.47
2019-04-03T01:44:48.914Z,7.67
2019-04-03T01:47:17.799Z,7.70
2019-04-03T01:49:46.447Z,7.87
2019-04-03T01:52:15.112Z,7.50
2019-04-03T01:54:43.773Z,8.05
2019-04-03T01:57:13.318Z,7.85
2019-04-03T01:59:41.923Z,7.78
2019-04-03T02:02:10.619Z,7.92
2019-04-03T02:04:41.971Z,7.65
2019-04-03T02:07:09.782Z,7.72
2019-04-03T02:09:38.599Z,7.87
2019-04-03T02:12:07.261Z,8.08
2019-04-03T02:14:35.866Z,8.33
2019-04-03T02:17:04.676Z,7.87
2019-04-03T02:19:33.346Z,8.18
2019-04-03T02:22:01.957Z,8.28
2019-04-03T02:24:31.813Z,7.97
2019-04-03T02:27:02.755Z,8.13
2019-04-03T02:29:31.262Z,8.08
2019-04-03T02:31:59.919Z,7.83
2019-04-03T02:34:28.569Z,7.80
2019-04-03T02:36:57.176Z,8.20
2019-04-03T02:39:27.519Z,8.65
2019-04-03T02:41:56.366Z,8.23
2019-04-03T02:44:24.964Z,8.43
2019-04-03T02:46:53.615Z,7.97
2019-04-03T02:49:22.283Z,8.25
2019-04-03T02:51:52.973Z,8.43
2019-04-03T02:54:30.345Z,7.83
2019-04-03T02:56:59.356Z,8.00
2019-04-03T02:59:28.100Z,8.88
2019-04-03T03:01:56.767Z,8.75
2019-04-03T03:04:26.222Z,8.58
2019-04-03T03:06:54.976Z,8.10
2019-04-03T03:09:23.883Z,7.70
2019-04-03T03:11:56.051Z,8.68
2019-04-03T03:14:24.134Z,8.43
2019-04-03T03:16:53.297Z,9.00
2019-04-03T03:19:23.397Z,8.65
2019-04-03T03:21:55.970Z,8.45
2019-04-03T03:24:28.440Z,8.55
2019-04-03T03:26:56.385Z,8.75
2019-04-03T03:29:27.154Z,8.63
2019-04-03T03:32:08.202Z,8.68
2019-04-03T03:34:47.786Z,9.03
2019-04-03T03:37:01.791Z,9.38
2019-04-03T03:39:28.922Z,8.60
2019-04-03T03:41:59.118Z,8.90
2019-04-03T03:44:28.934Z,8.75
2019-04-03T03:47:01.089Z,8.48
2019-04-03T03:49:29.889Z,8.28
2019-04-03T03:52:02.605Z,8.25
2019-04-03T03:54:30.478Z,8.60
2019-04-03T03:57:04.338Z,8.88
2019-04-03T03:59:31.533Z,8.88
2019-04-03T04:02:03.441Z,8.90
2019-04-03T04:04:30.847Z,8.78
2019-04-03T04:07:02.180Z,9.05
2019-04-03T04:09:30.168Z,9.30
2019-04-03T04:11:59.073Z,8.80
2019-04-03T04:14:28.252Z,9.60
2019-04-03T04:16:57.231Z,9.58
2019-04-03T04:19:29.629Z,9.03
2019-04-03T04:21:56.889Z,9.25
2019-04-03T04:24:27.749Z,9.23
2019-04-03T04:26:56.579Z,9.05
2019-04-03T04:29:25.450Z,8.83
2019-04-03T04:31:54.111Z,9.45
2019-04-03T04:34:22.766Z,9.30
2019-04-03T04:36:51.385Z,9.03
2019-04-03T04:39:21.615Z,9.43
2019-04-03T04:41:50.220Z,9.35
2019-04-03T04:44:19.017Z,9.63
2019-04-03T04:46:47.735Z,9.90
2019-04-03T04:49:16.390Z,9.45
2019-04-03T04:51:45.150Z,9.95
2019-04-03T04:54:13.798Z,9.15
2019-04-03T04:56:42.542Z,9.70
2019-04-03T04:59:11.726Z,9.50
2019-04-03T05:01:41.548Z,10.03
2019-04-03T05:04:10.156Z,10.40
2019-04-03T05:06:38.812Z,10.20
2019-04-03T05:09:07.777Z,9.70
2019-04-03T05:11:36.844Z,10.00
2019-04-03T05:14:06.909Z,10.00
2019-04-03T05:16:35.615Z,9.18
2019-04-03T05:19:10.685Z,10.78
2019-04-03T05:21:34.632Z,10.28
2019-04-03T05:24:12.148Z,10.50
2019-04-03T05:26:33.616Z,10.55
2019-04-03T05:29:03.028Z,10.13
2019-04-03T05:31:32.608Z,10.43
2019-04-03T05:34:01.268Z,10.88
2019-04-03T05:36:29.870Z,10.48
2019-04-03T05:38:58.534Z,10.38
2019-04-03T05:41:28.364Z,10.38
2019-04-03T05:43:57.482Z,9.80
2019-04-03T05:46:26.086Z,10.15
2019-04-03T05:48:54.695Z,10.45
2019-04-03T05:51:23.352Z,10.00
2019-04-03T05:53:53.768Z,11.20
2019-04-03T05:56:22.612Z,9.95
2019-04-03T05:58:55.984Z,11.05
2019-04-03T06:01:21.631Z,10.90
2019-04-03T06:03:50.242Z,10.58
2019-04-03T06:06:18.900Z,11.08
2019-04-03T06:08:47.504Z,10.95
2019-04-03T06:11:16.111Z,11.03
2019-04-03T06:13:47.485Z,11.50
2019-04-03T06:16:16.826Z,11.03
2019-04-03T06:18:47.501Z,10.80
2019-04-03T06:21:16.089Z,10.82
2019-04-03T06:23:44.755Z,10.32
2019-04-03T06:26:13.483Z,10.88
2019-04-03T06:28:43.074Z,11.28
2019-04-03T06:31:12.633Z,10.72
2019-04-03T06:33:41.294Z,11.12
2019-04-03T06:36:09.901Z,11.53
2019-04-03T06:38:38.761Z,11.68
2019-04-03T06:41:08.784Z,12.20
2019-04-03T06:43:37.839Z,11.48
2019-04-03T06:46:06.500Z,11.73
2019-04-03T06:48:36.580Z,12.18
2019-04-03T06:51:05.746Z,12.30
2019-04-03T06:53:34.811Z,13.28
2019-04-03T06:56:03.973Z,11.53
2019-04-03T06:58:38.320Z,11.88
2019-04-03T07:01:03.105Z,11.73
2019-04-03T07:03:32.236Z,12.30
2019-04-03T07:06:02.290Z,11.73
2019-04-03T07:08:34.922Z,11.83
2019-04-03T07:11:01.284Z,11.80
2019-04-03T07:13:30.149Z,12.00
2019-04-03T07:15:59.030Z,12.03
2019-04-03T07:18:27.691Z,11.65
2019-04-03T07:20:56.327Z,11.08
2019-04-03T07:23:24.986Z,11.35
2019-04-03T07:25:53.602Z,11.10
2019-04-03T07:28:22.268Z,11.25
2019-04-03T07:30:53.526Z,11.08
2019-04-03T07:33:21.315Z,10.10
2019-04-03T07:35:50.313Z,11.35
2019-04-03T07:38:20.026Z,11.68
2019-04-03T07:40:50.963Z,12.45
2019-04-03T07:43:19.859Z,11.50
2019-04-03T07:45:48.460Z,11.35
2019-04-03T07:48:17.197Z,12.25
2019-04-03T07:50:45.904Z,11.97
2019-04-03T07:53:14.586Z,10.50
2019-04-03T07:55:44.289Z,11.65
2019-04-03T07:58:13.083Z,11.20
2019-04-03T08:00:42.081Z,10.08
2019-04-03T08:03:10.936Z,10.60
2019-04-03T08:05:39.553Z,10.75
2019-04-03T08:08:08.476Z,10.30
2019-04-03T08:10:37.802Z,10.72
2019-04-03T08:13:07.535Z,11.15
2019-04-03T08:15:36.537Z,11.53
2019-04-03T08:18:05.226Z,10.95
2019-04-03T08:20:34.031Z,10.40
2019-04-03T08:23:04.699Z,11.20
2019-04-03T08:25:33.258Z,10.80
2019-04-03T08:28:02.096Z,9.83
2019-04-03T08:30:30.758Z,10.53
2019-04-03T08:32:59.365Z,10.60
2019-04-03T08:35:28.049Z,10.53
2019-04-03T08:37:56.666Z,10.43
2019-04-03T08:40:25.321Z,9.93
2019-04-03T08:42:53.942Z,10.95
2019-04-03T08:45:22.794Z,10.80
2019-04-03T08:47:51.503Z,10.60
2019-04-03T08:50:20.163Z,10.05
2019-04-03T08:52:48.907Z,10.60
2019-04-03T08:55:17.676Z,10.95
2019-04-03T08:57:46.922Z,10.38
2019-04-03T09:00:16.943Z,10.75
2019-04-03T09:02:45.608Z,9.70
2019-04-03T09:05:15.172Z,10.08
2019-04-03T09:07:44.114Z,9.68
2019-04-03T09:10:13.654Z,10.55
2019-04-03T09:12:42.398Z,10.35
2019-04-03T09:15:11.388Z,10.80
2019-04-03T09:17:40.036Z,10.63
2019-04-03T09:20:12.521Z,10.03
2019-04-03T09:22:40.341Z,10.75
2019-04-03T09:25:09.705Z,10.28
2019-04-03T09:27:40.603Z,10.45
2019-04-03T09:30:15.474Z,10.72
2019-04-03T09:32:43.441Z,10.03
2019-04-03T09:35:12.512Z,9.75
2019-04-03T09:37:41.407Z,10.32
2019-04-03T09:40:10.588Z,11.60
2019-04-03T09:42:39.202Z,10.78
2019-04-03T09:45:09.290Z,11.12
2019-04-03T09:47:38.162Z,10.75
2019-04-03T09:50:09.829Z,10.88
2019-04-03T09:52:44.977Z,10.05
2019-04-03T09:55:09.420Z,10.28
2019-04-03T09:57:38.508Z,10.18
2019-04-03T10:00:10.591Z,10.20
2019-04-03T10:02:40.104Z,10.48
2019-04-03T10:05:09.234Z,10.08
2019-04-03T10:07:38.292Z,9.33
2019-04-03T10:10:08.577Z,9.85
2019-04-03T10:12:37.309Z,10.08
2019-04-03T10:15:07.736Z,10.55
2019-04-03T10:17:38.356Z,10.20
2019-04-03T10:20:08.337Z,9.35
2019-04-03T10:22:37.370Z,9.65
2019-04-03T10:25:09.635Z,9.68
2019-04-03T10:27:38.253Z,9.35
2019-04-03T10:30:13.714Z,10.25
2019-04-03T10:32:42.474Z,10.32
2019-04-03T10:35:11.952Z,9.83
2019-04-03T10:37:40.534Z,9.48
2019-04-03T10:40:11.025Z,9.20
2019-04-03T10:42:39.680Z,10.20
2019-04-03T10:45:09.548Z,9.60
2019-04-03T10:47:42.826Z,10.60
2019-04-03T10:50:09.685Z,10.68
2019-04-03T10:52:38.293Z,10.93
2019-04-03T10:55:08.101Z,10.50
2019-04-03T10:57:37.140Z,10.25
2019-04-03T11:00:11.829Z,10.28
2019-04-03T11:02:40.851Z,10.00
2019-04-03T11:05:10.811Z,10.28
2019-04-03T11:07:39.534Z,9.68
2019-04-03T11:10:09.850Z,10.85
2019-04-03T11:12:38.734Z,10.78
2019-04-03T11:15:11.670Z,10.25
2019-04-03T11:17:39.470Z,10.15
2019-04-03T11:20:10.811Z,11.10
2019-04-03T11:22:42.484Z,10.00
2019-04-03T11:25:13.992Z,11.10
2019-04-03T11:27:44.079Z,11.10
2019-04-03T11:30:17.349Z,12.03
2019-04-03T11:32:45.147Z,12.43
2019-04-03T11:35:15.033Z,11.75
2019-04-03T11:37:43.832Z,11.78
2019-04-03T11:40:17.417Z,12.68
2019-04-03T11:42:45.710Z,12.30
2019-04-03T11:45:16.955Z,12.63
2019-04-03T11:47:46.404Z,12.58
2019-04-03T11:50:16.178Z,11.50
2019-04-03T11:52:44.788Z,12.25
2019-04-03T11:55:14.571Z,12.05
2019-04-03T11:57:43.237Z,11.53
2019-04-03T12:00:13.705Z,10.65
2019-04-03T12:02:44.493Z,10.90
2019-04-03T12:05:16.172Z,10.85
2019-04-03T12:07:45.091Z,10.03
2019-04-03T12:10:14.187Z,10.98
2019-04-03T12:12:43.014Z,11.18
2019-04-03T12:15:15.627Z,11.35
2019-04-03T12:17:43.182Z,10.60
2019-04-03T12:20:15.324Z,10.58
2019-04-03T12:22:44.323Z,10.85
2019-04-03T12:25:13.996Z,10.60
2019-04-03T12:27:45.018Z,10.15
2019-04-03T12:30:14.040Z,10.30
2019-04-03T12:32:47.492Z,10.35
2019-04-03T12:35:13.985Z,10.08
2019-04-03T12:37:42.967Z,10.60
2019-04-03T12:40:12.595Z,10.03
2019-04-03T12:42:41.307Z,10.45
2019-04-03T12:45:10.690Z,9.90
2019-04-03T12:47:39.434Z,9.78
2019-04-03T12:50:12.102Z,9.60
2019-04-03T12:52:43.377Z,9.98
2019-04-03T12:55:10.744Z,9.93
2019-04-03T12:57:40.238Z,9.70
2019-04-03T13:00:13.076Z,9.90
2019-04-03T13:05:10.957Z,9.25
2019-04-03T13:07:39.708Z,9.30
2019-04-03T13:10:12.183Z,9.78
2019-04-03T13:12:40.929Z,9.70
2019-04-03T13:15:11.549Z,10.20
2019-04-03T13:17:43.279Z,9.80
2019-04-03T13:20:11.687Z,10.10
2019-04-03T13:22:42.612Z,10.40
2019-04-03T13:25:11.960Z,9.60
2019-04-03T13:27:40.759Z,10.08
2019-04-03T13:30:12.345Z,9.48
2019-04-03T13:32:41.745Z,9.88
2019-04-03T13:35:11.304Z,10.50
2019-04-03T13:37:39.950Z,10.18
2019-04-03T13:40:10.514Z,9.90
2019-04-03T13:42:39.163Z,9.30
2019-04-03T13:45:09.288Z,10.10
2019-04-03T13:47:41.514Z,8.75
2019-04-03T13:50:09.651Z,8.90
2019-04-03T13:52:42.471Z,8.98
2019-04-03T13:55:08.909Z,9.30
2019-04-03T13:57:37.632Z,9.28
2019-04-03T14:00:18.138Z,9.15
2019-04-03T14:02:37.889Z,9.95
2019-04-03T14:05:09.880Z,9.23
2019-04-03T14:07:41.639Z,9.13
2019-04-03T14:10:10.888Z,8.70
2019-04-03T14:12:43.553Z,9.53
2019-04-03T14:15:11.156Z,9.55
2019-04-03T14:17:39.863Z,9.68
2019-04-03T14:20:10.034Z,9.05
2019-04-03T14:22:38.847Z,8.98
2019-04-03T14:25:17.885Z,8.60
2019-04-03T14:27:38.474Z,8.50
2019-04-03T14:30:11.105Z,9.18
2019-04-03T14:32:39.988Z,8.50
2019-04-03T14:35:41.230Z,8.80
2019-04-03T14:37:39.851Z,8.53
2019-04-03T14:40:11.503Z,8.70
2019-04-03T14:42:39.336Z,8.85
2019-04-03T14:45:13.429Z,8.75
2019-04-03T14:47:40.712Z,8.83
2019-04-03T14:50:10.193Z,9.25
2019-04-03T14:52:39.437Z,9.25
2019-04-03T14:55:19.814Z,9.63
2019-04-03T14:57:39.331Z,9.18
2019-04-03T15:00:25.292Z,8.80
2019-04-03T15:02:42.211Z,8.60
2019-04-03T15:05:11.273Z,8.90
2019-04-03T15:07:40.494Z,9.08
2019-04-03T15:10:09.821Z,8.63
2019-04-03T15:12:39.751Z,8.30
2019-04-03T15:15:09.798Z,8.30
2019-04-03T15:17:38.922Z,8.80
2019-04-03T15:20:11.117Z,8.68
2019-04-03T15:22:39.794Z,7.62
2019-04-03T15:25:09.573Z,8.85
2019-04-03T15:27:38.333Z,8.40
2019-04-03T15:30:11.280Z,8.20
2019-04-03T15:32:40.194Z,7.90
2019-04-03T15:35:09.350Z,8.58
2019-04-03T15:37:40.100Z,8.45
2019-04-03T15:40:10.249Z,8.60
2019-04-03T15:42:41.277Z,8.53
2019-04-03T15:45:10.312Z,8.08
2019-04-03T15:47:44.805Z,7.92
2019-04-03T15:50:12.002Z,8.40
2019-04-03T15:52:43.328Z,8.50
2019-04-03T15:55:12.073Z,8.43
2019-04-03T15:57:40.967Z,7.87
2019-04-03T16:00:20.137Z,8.15
2019-04-03T16:02:49.428Z,7.45
2019-04-03T16:05:18.879Z,7.95
2019-04-03T16:07:47.559Z,8.28
2019-04-03T16:10:16.288Z,7.62
2019-04-03T16:12:45.482Z,7.20
2019-04-03T16:15:15.302Z,8.23
2019-04-03T16:17:44.231Z,7.53
2019-04-03T16:20:15.817Z,7.83
2019-04-03T16:22:43.898Z,9.25
2019-04-03T16:25:16.148Z,9.73
2019-04-03T16:27:43.222Z,15.15
2019-04-03T16:30:15.322Z,8.43
2019-04-03T16:32:43.559Z,9.08
2019-04-03T16:35:14.193Z,8.00
2019-04-03T16:37:42.842Z,8.48
2019-04-03T16:40:12.706Z,7.58
2019-04-03T16:42:41.649Z,7.50
2019-04-03T16:45:11.964Z,8.18
2019-04-03T16:47:40.733Z,7.72
2019-04-03T16:50:11.023Z,7.47
2019-04-03T16:52:40.042Z,7.53
2019-04-03T16:55:10.106Z,7.37
2019-04-03T16:57:39.199Z,6.65
2019-04-03T17:00:10.242Z,7.58
2019-04-03T17:02:39.168Z,7.12
2019-04-03T17:05:11.650Z,7.87
2019-04-03T17:07:40.447Z,7.63
2019-04-03T17:10:10.708Z,7.42
2019-04-03T17:12:39.638Z,8.08
2019-04-03T17:15:10.027Z,7.75
2019-04-03T17:17:39.177Z,8.08
2019-04-03T17:20:09.906Z,8.15
2019-04-03T17:22:40.921Z,7.40
2019-04-03T17:25:09.686Z,7.70
2019-04-03T17:27:38.432Z,7.58
2019-04-03T17:30:09.462Z,7.60
2019-04-03T17:32:38.896Z,8.38
2019-04-03T17:35:08.707Z,9.20
2019-04-03T17:37:38.357Z,9.78
2019-04-03T17:40:14.569Z,10.98
2019-04-03T17:42:43.342Z,10.18
2019-04-03T17:45:15.560Z,8.83
2019-04-03T17:47:43.760Z,9.00
2019-04-03T17:50:12.707Z,8.48
2019-04-03T17:52:41.359Z,8.85
2019-04-03T17:55:11.019Z,8.18
2019-04-03T17:57:39.885Z,8.08
2019-04-03T18:00:20.610Z,7.75
2019-04-03T18:02:47.707Z,7.55
2019-04-03T18:05:16.717Z,8.40
2019-04-03T18:07:45.451Z,7.97
2019-04-03T18:10:14.766Z,7.95
2019-04-03T18:12:45.638Z,8.35
2019-04-03T18:15:14.163Z,7.90
2019-04-03T18:17:42.963Z,8.43
2019-04-03T18:20:13.476Z,7.95
2019-04-03T18:22:42.189Z,8.90
2019-04-03T18:25:11.077Z,9.28
2019-04-03T18:27:39.735Z,9.15
2019-04-03T18:30:12.543Z,8.93
2019-04-03T18:32:41.523Z,9.50
2019-04-03T18:35:10.643Z,8.80
2019-04-03T18:37:40.997Z,9.03
2019-04-03T18:40:13.939Z,9.03
2019-04-03T18:42:41.588Z,9.50
2019-04-03T18:45:10.586Z,9.60
2019-04-03T18:47:41.571Z,10.18
2019-04-03T18:50:10.422Z,9.05
2019-04-03T18:52:39.390Z,9.75
2019-04-03T18:55:08.872Z,9.78
2019-04-03T18:57:37.520Z,10.38
2019-04-03T19:00:10.890Z,9.93
2019-04-03T19:02:39.660Z,11.08
2019-04-03T19:05:13.629Z,9.98
2019-04-03T19:07:39.853Z,9.68
2019-04-03T19:10:08.960Z,9.88
2019-04-03T19:12:37.622Z,10.18
2019-04-03T19:15:07.854Z,10.58
2019-04-03T19:17:36.488Z,10.35
2019-04-03T19:20:10.832Z,10.60
2019-04-03T19:22:37.651Z,10.53
2019-04-03T19:25:08.015Z,10.78
2019-04-03T19:27:36.763Z,11.05
2019-04-03T19:30:09.317Z,11.10
2019-04-03T19:32:38.032Z,10.57
2019-04-03T19:35:10.042Z,10.80
2019-04-03T19:37:38.835Z,9.75
2019-04-03T19:40:09.860Z,10.32
2019-04-03T19:42:38.700Z,9.73
2019-04-03T19:45:08.220Z,10.72
2019-04-03T19:47:36.938Z,9.73
2019-04-03T19:50:08.292Z,10.53
2019-04-03T19:52:37.369Z,11.40
2019-04-03T19:55:09.460Z,10.85
2019-04-03T19:57:38.113Z,10.48
2019-04-03T20:00:08.226Z,11.45
2019-04-03T20:02:38.284Z,11.40
2019-04-03T20:05:07.842Z,11.25
2019-04-03T20:07:36.588Z,10.50
2019-04-03T20:10:11.833Z,10.00
2019-04-03T20:12:40.490Z,10.20
2019-04-03T20:15:09.691Z,10.63
2019-04-03T20:17:38.298Z,10.72
2019-04-03T20:20:07.776Z,10.40
2019-04-03T20:22:38.270Z,10.20
2019-04-03T20:25:07.846Z,10.90
2019-04-03T20:27:36.575Z,10.68
2019-04-03T20:30:08.219Z,11.43
2019-04-03T20:32:39.938Z,9.93
2019-04-03T20:35:07.498Z,10.65
2019-04-03T20:37:36.161Z,10.60
2019-04-03T20:40:07.026Z,10.25
2019-04-03T20:42:35.811Z,10.32
2019-04-03T20:45:06.763Z,10.28
2019-04-03T20:47:35.421Z,10.63
2019-04-03T20:50:08.091Z,10.48
2019-04-03T20:52:36.756Z,10.67
2019-04-03T20:55:07.181Z,10.28
2019-04-03T20:57:35.824Z,9.50
2019-04-03T21:00:12.954Z,10.25
2019-04-03T21:02:42.188Z,10.03
2019-04-03T21:05:12.787Z,9.68
2019-04-03T21:07:41.438Z,9.80
2019-04-03T21:10:10.386Z,10.75
2019-04-03T21:12:39.041Z,9.98
2019-04-03T21:15:09.228Z,9.80
2019-04-03T21:17:38.188Z,9.88
2019-04-03T21:20:07.116Z,10.50
2019-04-03T21:22:35.772Z,9.98
2019-04-03T21:25:07.721Z,10.35
2019-04-03T21:27:39.778Z,10.20
2019-04-03T21:30:11.542Z,10.18
2019-04-03T21:32:40.223Z,9.10
2019-04-03T21:35:09.021Z,9.73
2019-04-03T21:37:39.687Z,9.28
2019-04-03T21:40:08.413Z,10.25
2019-04-03T21:42:37.015Z,9.43
2019-04-03T21:45:08.123Z,9.73
2019-04-03T21:47:36.956Z,9.93
2019-04-03T21:50:06.449Z,9.75
2019-04-03T21:52:35.183Z,9.90
2019-04-03T21:55:06.128Z,10.18
2019-04-03T21:57:37.602Z,10.23
2019-04-03T22:00:09.031Z,9.93
2019-04-03T22:02:37.632Z,9.88
2019-04-03T22:05:09.736Z,9.98
2019-04-03T22:07:38.347Z,10.15
2019-04-03T22:10:09.118Z,9.95
2019-04-03T22:12:38.019Z,9.83
2019-04-03T22:15:08.373Z,9.88
2019-04-03T22:17:37.029Z,9.95
2019-04-03T22:20:06.574Z,10.23
2019-04-03T22:22:35.255Z,9.73
2019-04-03T22:25:04.667Z,9.93
2019-04-03T22:27:33.394Z,9.73
2019-04-03T22:30:02.002Z,10.45
2019-04-03T22:32:30.712Z,10.63
2019-04-03T22:35:01.078Z,9.35
2019-04-03T22:37:29.749Z,9.73
2019-04-03T22:39:58.415Z,10.05
2019-04-03T22:42:27.019Z,9.98
2019-04-03T22:44:55.626Z,9.35
2019-04-03T22:47:25.069Z,9.60
2019-04-03T22:49:54.415Z,10.32
2019-04-03T22:52:23.269Z,10.00
2019-04-03T22:54:52.245Z,9.33
2019-04-03T22:57:20.898Z,9.58
2019-04-03T22:59:49.535Z,9.50
2019-04-03T23:02:18.259Z,9.38
2019-04-03T23:04:46.978Z,9.63
2019-04-03T23:07:15.635Z,9.65
2019-04-03T23:09:44.236Z,9.33
2019-04-03T23:12:12.889Z,10.08
2019-04-03T23:14:41.550Z,9.30
2019-04-03T23:17:10.160Z,9.90
2019-04-03T23:19:38.797Z,10.40
2019-04-03T23:22:07.399Z,9.68
2019-04-03T23:24:36.046Z,9.08
2019-04-03T23:27:04.720Z,9.33
2019-04-03T23:29:35.897Z,9.45
2019-04-03T23:32:03.825Z,9.70
2019-04-03T23:34:32.510Z,9.98
2019-04-03T23:37:01.263Z,9.15
2019-04-03T23:39:29.868Z,9.53
2019-04-03T23:41:58.531Z,9.35
2019-04-03T23:44:27.128Z,9.90
2019-04-03T23:46:55.780Z,9.58
2019-04-03T23:49:24.387Z,9.43
2019-04-03T23:51:53.054Z,9.13
2019-04-03T23:54:21.651Z,10.53
2019-04-03T23:56:50.297Z,9.98
2019-04-03T23:59:18.904Z,9.88
